createdAt,value
2022-10-24T00:00:17.895Z,97556.44
2022-10-24T00:01:22.360Z,97554.66
2022-10-24T00:02:24.603Z,97550.69
2022-10-24T00:03:26.327Z,97554.28
2022-10-24T00:04:27.879Z,97553.84
2022-10-24T00:05:29.482Z,97553.31
2022-10-24T00:06:33.833Z,97554.53
2022-10-24T00:07:35.418Z,97554.44
2022-10-24T00:08:37.848Z,97551.84
2022-10-24T00:09:39.425Z,97545.97
2022-10-24T00:10:43.886Z,97544.97
2022-10-24T00:11:45.498Z,97547.22
2022-10-24T00:12:47.380Z,97536.63
2022-10-24T00:13:50.364Z,97538.09
2022-10-24T00:14:51.989Z,97535.19
2022-10-24T00:15:53.562Z,97539.78
2022-10-24T00:16:55.272Z,97539.63
2022-10-24T00:17:56.963Z,97531.91
2022-10-24T00:18:58.646Z,97532.22
2022-10-24T00:20:02.705Z,97536.94
2022-10-24T00:21:07.571Z,97538.00
2022-10-24T00:22:09.394Z,97537.09
2022-10-24T00:23:13.618Z,97541.25
2022-10-24T00:24:15.562Z,97542.00
2022-10-24T00:25:17.272Z,97541.59
2022-10-24T00:26:19.032Z,97539.09
2022-10-24T00:27:20.649Z,97535.00
2022-10-24T00:28:22.260Z,97530.94
2022-10-24T00:29:24.746Z,97528.38
2022-10-24T00:30:26.534Z,97525.84
2022-10-24T00:31:28.550Z,97523.38
2022-10-24T00:32:30.090Z,97526.31
2022-10-24T00:33:31.732Z,97525.91
2022-10-24T00:34:33.373Z,97525.69
2022-10-24T00:35:34.980Z,97534.34
2022-10-24T00:36:36.634Z,97534.81
2022-10-24T00:37:38.286Z,97524.84
2022-10-24T00:38:39.942Z,97528.75
2022-10-24T00:39:41.503Z,97535.81
2022-10-24T00:40:43.650Z,97537.53
2022-10-24T00:41:45.442Z,97536.97
2022-10-24T00:42:48.560Z,97534.16
2022-10-24T00:43:50.534Z,97533.84
2022-10-24T00:44:53.578Z,97533.06
2022-10-24T00:45:56.809Z,97534.31
2022-10-24T00:47:05.143Z,97539.69
2022-10-24T00:48:35.562Z,97531.38
2022-10-24T00:50:13.311Z,97534.53
2022-10-24T00:51:24.775Z,97529.13
2022-10-24T00:52:33.075Z,97538.34
2022-10-24T00:53:40.748Z,97532.94
2022-10-24T00:54:43.164Z,97539.03
2022-10-24T00:55:48.346Z,97537.44
2022-10-24T00:57:00.105Z,97531.47
2022-10-24T00:58:02.733Z,97524.75
2022-10-24T00:59:07.256Z,97531.34
2022-10-24T01:00:20.991Z,97526.16
2022-10-24T01:01:25.475Z,97522.16
2022-10-24T01:02:27.343Z,97523.06
2022-10-24T01:03:31.607Z,97516.19
2022-10-24T01:04:33.289Z,97517.38
2022-10-24T01:05:54.672Z,97516.91
2022-10-24T01:07:11.351Z,97527.03
2022-10-24T01:08:42.032Z,97518.59
2022-10-24T01:10:06.657Z,97516.25
2022-10-24T01:11:23.365Z,97514.69
2022-10-24T01:12:38.937Z,97518.88
2022-10-24T01:13:57.191Z,97516.50
2022-10-24T01:15:22.956Z,97512.56
2022-10-24T01:16:34.701Z,97515.84
2022-10-24T01:17:48.684Z,97521.75
2022-10-24T01:18:58.472Z,97523.59
2022-10-24T01:20:26.724Z,97526.06
2022-10-24T01:21:40.144Z,97524.41
2022-10-24T01:23:19.123Z,97529.50
2022-10-24T01:24:49.505Z,97520.72
2022-10-24T01:25:50.995Z,97523.88
2022-10-24T01:27:09.914Z,97528.16
2022-10-24T01:28:16.755Z,97512.00
2022-10-24T01:29:32.329Z,97512.91
2022-10-24T01:30:43.356Z,97510.53
2022-10-24T01:31:57.805Z,97513.22
2022-10-24T01:33:15.929Z,97512.91
2022-10-24T01:34:29.065Z,97517.59
2022-10-24T01:35:52.067Z,97525.25
2022-10-24T01:37:08.022Z,97528.59
2022-10-24T01:38:14.770Z,97521.31
2022-10-24T01:39:20.433Z,97520.50
2022-10-24T01:40:55.169Z,97521.63
2022-10-24T01:41:58.756Z,97519.63
2022-10-24T01:43:08.248Z,97520.03
2022-10-24T01:44:25.598Z,97511.88
2022-10-24T01:45:34.689Z,97509.69
2022-10-24T01:46:44.550Z,97519.13
2022-10-24T01:47:53.717Z,97513.44
2022-10-24T01:49:05.376Z,97520.94
2022-10-24T01:50:11.913Z,97523.97
2022-10-24T01:51:17.147Z,97516.09
2022-10-24T01:52:20.159Z,97525.94
2022-10-24T01:53:25.034Z,97526.63
2022-10-24T01:54:28.257Z,97524.34
2022-10-24T01:55:32.698Z,97529.84
2022-10-24T01:56:34.689Z,97524.13
2022-10-24T01:57:36.305Z,97515.47
2022-10-24T01:58:37.950Z,97515.00
2022-10-24T01:59:43.405Z,97521.50
2022-10-24T02:00:47.267Z,97523.75
2022-10-24T02:01:49.149Z,97527.16
2022-10-24T02:03:04.105Z,97517.09
2022-10-24T02:04:11.077Z,97525.97
2022-10-24T02:05:17.182Z,97531.34
2022-10-24T02:06:35.231Z,97530.22
2022-10-24T02:07:40.977Z,97529.50
2022-10-24T02:08:48.880Z,97523.22
2022-10-24T02:10:00.578Z,97531.72
2022-10-24T02:11:06.655Z,97523.22
2022-10-24T02:12:10.385Z,97521.63
2022-10-24T02:13:19.264Z,97524.78
2022-10-24T02:14:28.205Z,97532.66
2022-10-24T02:15:33.884Z,97532.13
2022-10-24T02:16:35.713Z,97525.97
2022-10-24T02:17:39.559Z,97526.75
2022-10-24T02:18:41.609Z,97523.75
2022-10-24T02:19:44.473Z,97527.34
2022-10-24T02:20:54.840Z,97532.53
2022-10-24T02:22:02.189Z,97529.22
2022-10-24T02:23:13.277Z,97531.91
2022-10-24T02:24:22.161Z,97532.03
2022-10-24T02:25:33.700Z,97524.38
2022-10-24T02:26:41.799Z,97526.88
2022-10-24T02:27:55.851Z,97517.97
2022-10-24T02:29:01.803Z,97529.13
2022-10-24T02:30:13.675Z,97526.63
2022-10-24T02:31:21.851Z,97524.66
2022-10-24T02:32:29.736Z,97527.81
2022-10-24T02:33:34.248Z,97528.06
2022-10-24T02:34:38.579Z,97523.63
2022-10-24T02:35:41.618Z,97511.72
2022-10-24T02:36:44.951Z,97522.97
2022-10-24T02:37:51.725Z,97526.34
2022-10-24T02:38:55.338Z,97518.75
2022-10-24T02:39:59.545Z,97522.34
2022-10-24T02:41:04.990Z,97515.06
2022-10-24T02:42:08.707Z,97521.03
2022-10-24T02:43:12.813Z,97521.94
2022-10-24T02:44:16.634Z,97523.84
2022-10-24T02:45:21.142Z,97519.25
2022-10-24T02:46:25.321Z,97521.28
2022-10-24T02:47:28.597Z,97515.44
2022-10-24T02:48:34.825Z,97524.44
2022-10-24T02:49:36.603Z,97523.31
2022-10-24T02:50:41.024Z,97523.75
2022-10-24T02:51:46.060Z,97518.56
2022-10-24T02:52:48.268Z,97521.34
2022-10-24T02:53:50.852Z,97519.56
2022-10-24T02:54:53.659Z,97525.41
2022-10-24T02:55:55.402Z,97519.56
2022-10-24T02:57:01.431Z,97518.19
2022-10-24T02:58:03.208Z,97516.34
2022-10-24T02:59:04.870Z,97524.44
2022-10-24T03:00:08.012Z,97519.25
2022-10-24T03:01:09.917Z,97523.84
2022-10-24T03:02:11.731Z,97511.50
2022-10-24T03:03:13.765Z,97516.88
2022-10-24T03:04:15.624Z,97512.06
2022-10-24T03:05:17.312Z,97512.69
2022-10-24T03:06:18.960Z,97512.25
2022-10-24T03:07:20.744Z,97517.28
2022-10-24T03:08:22.444Z,97514.94
2022-10-24T03:09:24.111Z,97518.75
2022-10-24T03:10:25.775Z,97512.25
2022-10-24T03:11:27.587Z,97522.34
2022-10-24T03:12:29.192Z,97516.50
2022-10-24T03:13:30.842Z,97525.72
2022-10-24T03:14:32.856Z,97510.09
2022-10-24T03:15:34.580Z,97519.78
2022-10-24T03:16:36.312Z,97514.50
2022-10-24T03:17:37.997Z,97522.03
2022-10-24T03:18:39.778Z,97514.88
2022-10-24T03:19:41.413Z,97508.38
2022-10-24T03:20:43.067Z,97513.88
2022-10-24T03:21:44.762Z,97516.47
2022-10-24T03:22:46.393Z,97514.09
2022-10-24T03:23:48.181Z,97516.00
2022-10-24T03:24:56.465Z,97508.72
2022-10-24T03:25:59.317Z,97512.19
2022-10-24T03:27:00.972Z,97513.78
2022-10-24T03:28:02.680Z,97507.59
2022-10-24T03:29:04.845Z,97513.78
2022-10-24T03:30:07.355Z,97505.75
2022-10-24T03:31:09.155Z,97516.91
2022-10-24T03:32:13.177Z,97515.88
2022-10-24T03:33:19.019Z,97518.25
2022-10-24T03:34:20.838Z,97521.88
2022-10-24T03:35:22.616Z,97520.34
2022-10-24T03:36:24.520Z,97520.34
2022-10-24T03:37:26.541Z,97529.75
2022-10-24T03:38:28.289Z,97528.34
2022-10-24T03:39:32.220Z,97521.13
2022-10-24T03:40:37.430Z,97527.13
2022-10-24T03:41:39.060Z,97522.97
2022-10-24T03:42:40.740Z,97524.44
2022-10-24T03:43:42.513Z,97527.47
2022-10-24T03:44:44.227Z,97523.25
2022-10-24T03:45:45.989Z,97521.22
2022-10-24T03:46:47.750Z,97519.66
2022-10-24T03:47:49.448Z,97525.03
2022-10-24T03:48:51.110Z,97524.09
2022-10-24T03:49:52.839Z,97522.84
2022-10-24T03:50:56.009Z,97528.38
2022-10-24T03:51:57.743Z,97527.44
2022-10-24T03:53:00.016Z,97531.72
2022-10-24T03:54:01.605Z,97536.00
2022-10-24T03:55:03.417Z,97534.41
2022-10-24T03:56:05.254Z,97536.44
2022-10-24T03:57:09.969Z,97537.38
2022-10-24T03:58:11.601Z,97534.69
2022-10-24T03:59:13.600Z,97528.38
2022-10-24T04:00:15.650Z,97540.06
2022-10-24T04:01:18.643Z,97531.53
2022-10-24T04:02:20.581Z,97534.22
2022-10-24T04:03:22.167Z,97534.84
2022-10-24T04:04:23.844Z,97531.69
2022-10-24T04:05:25.478Z,97539.72
2022-10-24T04:06:27.429Z,97532.25
2022-10-24T04:07:31.230Z,97523.25
2022-10-24T04:08:32.830Z,97526.75
2022-10-24T04:09:34.505Z,97527.00
2022-10-24T04:10:36.327Z,97532.38
2022-10-24T04:11:40.725Z,97530.03
2022-10-24T04:12:42.436Z,97528.59
2022-10-24T04:13:44.274Z,97530.47
2022-10-24T04:14:48.345Z,97529.81
2022-10-24T04:15:50.059Z,97530.78
2022-10-24T04:16:51.731Z,97525.72
2022-10-24T04:17:53.419Z,97525.09
2022-10-24T04:18:55.014Z,97529.81
2022-10-24T04:19:56.587Z,97527.06
2022-10-24T04:20:58.277Z,97525.47
2022-10-24T04:22:00.296Z,97522.91
2022-10-24T04:23:04.410Z,97533.94
2022-10-24T04:24:06.831Z,97534.88
2022-10-24T04:25:08.531Z,97526.47
2022-10-24T04:26:12.976Z,97530.41
2022-10-24T04:27:14.575Z,97531.97
2022-10-24T04:28:16.353Z,97526.47
2022-10-24T04:29:17.989Z,97528.09
2022-10-24T04:30:19.683Z,97537.75
2022-10-24T04:31:23.518Z,97533.00
2022-10-24T04:32:25.580Z,97529.53
2022-10-24T04:33:27.164Z,97537.06
2022-10-24T04:34:28.729Z,97530.00
2022-10-24T04:35:30.609Z,97534.44
2022-10-24T04:36:43.051Z,97536.66
2022-10-24T04:37:44.636Z,97526.56
2022-10-24T04:38:46.273Z,97529.72
2022-10-24T04:39:48.142Z,97529.25
2022-10-24T04:40:54.293Z,97524.84
2022-10-24T04:41:56.039Z,97519.47
2022-10-24T04:42:57.665Z,97524.53
2022-10-24T04:43:59.506Z,97528.16
2022-10-24T04:45:01.106Z,97527.03
2022-10-24T04:46:02.744Z,97527.66
2022-10-24T04:47:04.444Z,97525.16
2022-10-24T04:48:06.448Z,97534.81
2022-10-24T04:49:08.091Z,97531.47
2022-10-24T04:50:10.179Z,97524.53
2022-10-24T04:51:12.068Z,97522.97
2022-10-24T04:52:13.798Z,97527.66
2022-10-24T04:53:17.333Z,97526.75
2022-10-24T04:54:18.985Z,97529.56
2022-10-24T04:55:20.605Z,97531.03
2022-10-24T04:56:22.928Z,97532.59
2022-10-24T04:57:26.926Z,97534.81
2022-10-24T04:58:28.636Z,97539.09
2022-10-24T04:59:30.234Z,97528.00
2022-10-24T05:00:31.948Z,97527.66
2022-10-24T05:01:33.702Z,97533.34
2022-10-24T05:02:35.520Z,97533.78
2022-10-24T05:03:37.252Z,97541.66
2022-10-24T05:04:38.954Z,97538.97
2022-10-24T05:05:40.902Z,97541.53
2022-10-24T05:06:45.022Z,97543.25
2022-10-24T05:07:47.494Z,97537.22
2022-10-24T05:08:49.272Z,97541.94
2022-10-24T05:09:50.903Z,97542.75
2022-10-24T05:10:52.997Z,97532.50
2022-10-24T05:11:55.846Z,97536.16
2022-10-24T05:12:57.651Z,97543.91
2022-10-24T05:13:59.936Z,97536.94
2022-10-24T05:15:01.516Z,97542.00
2022-10-24T05:16:03.540Z,97548.63
2022-10-24T05:17:05.081Z,97532.50
2022-10-24T05:18:06.830Z,97542.63
2022-10-24T05:19:08.507Z,97541.03
2022-10-24T05:20:10.636Z,97541.34
2022-10-24T05:21:12.605Z,97544.81
2022-10-24T05:22:14.144Z,97544.50
2022-10-24T05:23:15.873Z,97539.44
2022-10-24T05:24:17.507Z,97549.88
2022-10-24T05:25:19.439Z,97548.44
2022-10-24T05:26:20.964Z,97552.72
2022-10-24T05:27:24.852Z,97555.59
2022-10-24T05:28:26.419Z,97551.78
2022-10-24T05:29:28.001Z,97551.13
2022-10-24T05:30:29.562Z,97552.72
2022-10-24T05:32:33.811Z,97552.84
2022-10-24T05:33:37.553Z,97555.34
2022-10-24T05:34:39.381Z,97556.47
2022-10-24T05:35:41.860Z,97559.66
2022-10-24T05:36:43.703Z,97556.97
2022-10-24T05:37:45.438Z,97565.31
2022-10-24T05:38:47.065Z,97559.00
2022-10-24T05:39:48.655Z,97563.66
2022-10-24T05:40:51.540Z,97562.63
2022-10-24T05:41:55.298Z,97565.22
2022-10-24T05:42:57.210Z,97568.09
2022-10-24T05:43:58.940Z,97559.84
2022-10-24T05:45:00.492Z,97568.72
2022-10-24T05:46:02.118Z,97562.22
2022-10-24T05:47:03.756Z,97566.22
2022-10-24T05:48:06.093Z,97573.16
2022-10-24T05:49:07.794Z,97559.25
2022-10-24T05:50:10.562Z,97563.03
2022-10-24T05:51:12.157Z,97561.81
2022-10-24T05:52:13.704Z,97553.94
2022-10-24T05:53:15.396Z,97571.75
2022-10-24T05:54:17.306Z,97574.59
2022-10-24T05:55:19.131Z,97569.50
2022-10-24T05:56:20.716Z,97569.22
2022-10-24T05:57:25.397Z,97565.28
2022-10-24T05:58:27.631Z,97570.66
2022-10-24T05:59:29.302Z,97574.09
2022-10-24T06:00:33.893Z,97566.88
2022-10-24T06:01:35.658Z,97570.97
2022-10-24T06:02:37.328Z,97572.41
2022-10-24T06:03:39.625Z,97576.78
2022-10-24T06:04:41.185Z,97577.53
2022-10-24T06:05:43.101Z,97580.81
2022-10-24T06:06:45.422Z,97579.78
2022-10-24T06:07:47.753Z,97583.03
2022-10-24T06:08:50.191Z,97582.03
2022-10-24T06:09:51.778Z,97575.06
2022-10-24T06:10:53.701Z,97572.16
2022-10-24T06:11:55.311Z,97578.75
2022-10-24T06:12:56.884Z,97583.75
2022-10-24T06:13:58.582Z,97580.06
2022-10-24T06:15:00.883Z,97578.38
2022-10-24T06:16:05.782Z,97586.84
2022-10-24T06:17:16.644Z,97579.78
2022-10-24T06:18:18.275Z,97586.34
2022-10-24T06:19:21.813Z,97585.53
2022-10-24T06:20:23.499Z,97579.28
2022-10-24T06:21:25.153Z,97581.09
2022-10-24T06:22:29.657Z,97585.97
2022-10-24T06:23:31.905Z,97579.94
2022-10-24T06:24:38.207Z,97582.41
2022-10-24T06:25:43.229Z,97579.00
2022-10-24T06:26:44.941Z,97579.13
2022-10-24T06:27:46.513Z,97587.75
2022-10-24T06:28:48.093Z,97582.03
2022-10-24T06:29:49.694Z,97585.84
2022-10-24T06:30:52.536Z,97585.47
2022-10-24T06:31:54.197Z,97585.38
2022-10-24T06:32:55.747Z,97587.91
2022-10-24T06:33:57.577Z,97586.94
2022-10-24T06:34:59.180Z,97592.47
2022-10-24T06:36:05.630Z,97588.69
2022-10-24T06:37:07.192Z,97589.16
2022-10-24T06:38:08.935Z,97589.81
2022-10-24T06:39:11.645Z,97593.44
2022-10-24T06:40:13.309Z,97595.34
2022-10-24T06:41:17.265Z,97593.47
2022-10-24T06:42:18.885Z,97588.16
2022-10-24T06:43:20.821Z,97596.13
2022-10-24T06:44:22.851Z,97592.78
2022-10-24T06:45:24.773Z,97592.44
2022-10-24T06:46:26.325Z,97584.81
2022-10-24T06:47:28.002Z,97581.78
2022-10-24T06:48:29.524Z,97579.28
2022-10-24T06:49:31.072Z,97581.97
2022-10-24T06:50:32.622Z,97589.16
2022-10-24T06:51:34.585Z,97593.44
2022-10-24T06:52:37.355Z,97593.88
2022-10-24T06:53:38.907Z,97593.66
2022-10-24T06:54:43.619Z,97589.41
2022-10-24T06:55:45.167Z,97586.59
2022-10-24T06:56:46.767Z,97592.50
2022-10-24T06:57:48.376Z,97591.28
2022-10-24T06:58:49.942Z,97585.22
2022-10-24T06:59:51.482Z,97590.03
2022-10-24T07:00:53.124Z,97591.84
2022-10-24T07:01:54.878Z,97597.69
2022-10-24T07:02:56.471Z,97601.44
2022-10-24T07:03:58.042Z,97592.63
2022-10-24T07:04:59.611Z,97593.50
2022-10-24T07:06:10.375Z,97597.22
2022-10-24T07:07:16.778Z,97596.25
2022-10-24T07:08:18.450Z,97586.72
2022-10-24T07:09:20.396Z,97593.91
2022-10-24T07:10:22.097Z,97588.34
2022-10-24T07:11:24.707Z,97595.28
2022-10-24T07:12:26.692Z,97589.47
2022-10-24T07:13:29.696Z,97581.63
2022-10-24T07:14:31.261Z,97580.75
2022-10-24T07:15:32.999Z,97589.22
2022-10-24T07:16:34.689Z,97586.78
2022-10-24T07:17:43.844Z,97580.66
2022-10-24T07:18:45.422Z,97581.44
2022-10-24T07:19:55.152Z,97581.44
2022-10-24T07:21:13.025Z,97585.78
2022-10-24T07:22:14.637Z,97580.38
2022-10-24T07:23:16.262Z,97577.06
2022-10-24T07:24:18.211Z,97578.22
2022-10-24T07:25:20.989Z,97577.44
2022-10-24T07:26:24.975Z,97578.75
2022-10-24T07:27:26.736Z,97585.97
2022-10-24T07:28:28.581Z,97583.53
2022-10-24T07:29:30.225Z,97583.97
2022-10-24T07:30:31.886Z,97583.88
2022-10-24T07:31:35.914Z,97580.47
2022-10-24T07:32:37.472Z,97577.56
2022-10-24T07:33:40.294Z,97580.53
2022-10-24T07:34:41.908Z,97589.56
2022-10-24T07:35:43.483Z,97588.84
2022-10-24T07:36:45.077Z,97580.47
2022-10-24T07:37:46.924Z,97582.00
2022-10-24T07:38:50.163Z,97585.31
2022-10-24T07:39:51.740Z,97580.66
2022-10-24T07:40:53.415Z,97577.94
2022-10-24T07:41:55.037Z,97581.97
2022-10-24T07:42:56.594Z,97581.94
2022-10-24T07:44:02.542Z,97584.81
2022-10-24T07:45:04.488Z,97584.81
2022-10-24T07:46:07.704Z,97577.28
2022-10-24T07:47:10.134Z,97578.72
2022-10-24T07:48:11.997Z,97581.31
2022-10-24T07:49:13.569Z,97584.56
2022-10-24T07:50:17.311Z,97580.53
2022-10-24T07:51:19.616Z,97579.34
2022-10-24T07:52:21.181Z,97576.22
2022-10-24T07:53:22.677Z,97575.94
2022-10-24T07:54:25.730Z,97574.59
2022-10-24T07:55:27.425Z,97572.97
2022-10-24T07:56:29.033Z,97577.44
2022-10-24T07:57:30.618Z,97572.72
2022-10-24T07:58:32.179Z,97573.94
2022-10-24T07:59:42.603Z,97565.19
2022-10-24T08:00:45.637Z,97567.78
2022-10-24T08:01:47.513Z,97562.66
2022-10-24T08:03:56.805Z,97564.00
2022-10-24T08:04:58.613Z,97568.25
2022-10-24T08:06:00.545Z,97563.09
2022-10-24T08:07:02.100Z,97563.81
2022-10-24T08:08:19.991Z,97567.78
2022-10-24T08:09:26.615Z,97563.53
2022-10-24T08:10:28.235Z,97566.44
2022-10-24T08:11:31.409Z,97563.97
2022-10-24T08:12:37.945Z,97554.25
2022-10-24T08:13:41.683Z,97553.06
2022-10-24T08:14:44.327Z,97554.81
2022-10-24T08:15:45.860Z,97556.50
2022-10-24T08:16:48.748Z,97558.00
2022-10-24T08:17:50.293Z,97552.44
2022-10-24T08:18:53.721Z,97552.81
2022-10-24T08:19:55.316Z,97547.69
2022-10-24T08:21:01.013Z,97547.59
2022-10-24T08:22:03.671Z,97546.47
2022-10-24T08:23:05.288Z,97545.03
2022-10-24T08:24:07.197Z,97550.75
2022-10-24T08:25:10.184Z,97540.75
2022-10-24T08:26:17.674Z,97541.69
2022-10-24T08:27:19.266Z,97535.13
2022-10-24T08:28:21.008Z,97540.38
2022-10-24T08:29:23.501Z,97540.59
2022-10-24T08:30:25.083Z,97541.63
2022-10-24T08:31:26.824Z,97544.91
2022-10-24T08:32:28.411Z,97548.34
2022-10-24T08:33:30.724Z,97547.00
2022-10-24T08:34:32.637Z,97544.31
2022-10-24T08:35:34.212Z,97534.91
2022-10-24T08:36:36.305Z,97532.56
2022-10-24T08:38:44.726Z,97533.38
2022-10-24T08:39:46.291Z,97530.97
2022-10-24T08:40:48.979Z,97533.69
2022-10-24T08:41:59.402Z,97527.81
2022-10-24T08:43:02.015Z,97523.84
2022-10-24T08:44:14.419Z,97529.34
2022-10-24T08:45:57.527Z,97527.13
2022-10-24T08:47:29.151Z,97526.56
2022-10-24T08:48:42.136Z,97523.44
2022-10-24T08:49:50.481Z,97523.94
2022-10-24T08:50:59.104Z,97515.69
2022-10-24T08:52:04.661Z,97511.97
2022-10-24T08:53:12.646Z,97505.84
2022-10-24T08:54:19.553Z,97517.50
2022-10-24T08:55:48.678Z,97512.13
2022-10-24T08:56:55.337Z,97511.66
2022-10-24T08:58:00.941Z,97508.81
2022-10-24T08:59:04.475Z,97509.34
2022-10-24T09:00:27.796Z,97509.22
2022-10-24T09:01:33.474Z,97506.97
2022-10-24T09:02:39.808Z,97506.66
2022-10-24T09:03:57.557Z,97498.44
2022-10-24T09:05:17.386Z,97504.44
2022-10-24T09:06:22.313Z,97497.44
2022-10-24T09:07:27.932Z,97500.56
2022-10-24T09:08:38.546Z,97498.19
2022-10-24T09:09:44.417Z,97497.06
2022-10-24T09:10:58.104Z,97496.34
2022-10-24T09:12:01.296Z,97481.28
2022-10-24T09:13:02.961Z,97484.84
2022-10-24T09:14:13.432Z,97484.50
2022-10-24T09:15:26.093Z,97471.28
2022-10-24T09:16:27.797Z,97484.25
2022-10-24T09:17:32.706Z,97480.03
2022-10-24T09:18:40.276Z,97476.16
2022-10-24T09:19:49.948Z,97480.38
2022-10-24T09:20:54.081Z,97478.44
2022-10-24T09:21:57.659Z,97472.31
2022-10-24T09:23:03.211Z,97477.78
2022-10-24T09:24:05.333Z,97473.28
2022-10-24T09:25:16.150Z,97471.03
2022-10-24T09:26:33.100Z,97467.13
2022-10-24T09:27:37.908Z,97474.94
2022-10-24T09:28:39.832Z,97468.00
2022-10-24T09:29:41.954Z,97463.34
2022-10-24T09:30:43.957Z,97464.16
2022-10-24T09:31:49.393Z,97453.34
2022-10-24T09:32:52.789Z,97453.41
2022-10-24T09:33:56.706Z,97455.38
2022-10-24T09:35:05.764Z,97453.34
2022-10-24T09:36:12.561Z,97455.22
2022-10-24T09:37:44.250Z,97455.56
2022-10-24T09:38:51.554Z,97448.16
2022-10-24T09:40:06.730Z,97454.78
2022-10-24T09:41:15.865Z,97448.59
2022-10-24T09:42:23.851Z,97441.25
2022-10-24T09:43:39.030Z,97446.31
2022-10-24T09:44:44.087Z,97440.88
2022-10-24T09:45:51.566Z,97436.34
2022-10-24T09:46:53.351Z,97436.41
2022-10-24T09:48:00.321Z,97437.94
2022-10-24T09:49:19.738Z,97437.56
2022-10-24T09:50:22.527Z,97431.75
2022-10-24T09:51:29.198Z,97432.16
2022-10-24T09:52:35.655Z,97429.88
2022-10-24T09:53:41.000Z,97425.56
2022-10-24T09:54:45.314Z,97426.78
2022-10-24T09:55:48.365Z,97428.78
2022-10-24T09:57:12.625Z,97424.13
2022-10-24T09:58:20.616Z,97420.19
2022-10-24T09:59:47.974Z,97421.72
2022-10-24T10:01:22.819Z,97416.28
2022-10-24T10:02:34.608Z,97417.88
2022-10-24T10:03:36.353Z,97403.09
2022-10-24T10:04:38.902Z,97414.00
2022-10-24T10:05:48.244Z,97414.78
2022-10-24T10:06:50.672Z,97404.28
2022-10-24T10:07:52.941Z,97403.88
2022-10-24T10:08:56.465Z,97402.00
2022-10-24T10:10:19.997Z,97396.94
2022-10-24T10:11:37.627Z,97399.28
2022-10-24T10:12:42.439Z,97397.69
2022-10-24T10:13:56.195Z,97395.38
2022-10-24T10:14:58.070Z,97399.28
2022-10-24T10:16:04.202Z,97389.16
2022-10-24T10:17:07.499Z,97393.81
2022-10-24T10:18:55.582Z,97388.38
2022-10-24T10:19:58.336Z,97380.94
2022-10-24T10:21:10.024Z,97382.88
2022-10-24T10:22:25.584Z,97384.06
2022-10-24T10:23:29.221Z,97385.25
2022-10-24T10:24:33.721Z,97377.44
2022-10-24T10:25:35.411Z,97379.00
2022-10-24T10:26:45.591Z,97378.63
2022-10-24T10:27:51.254Z,97378.59
2022-10-24T10:29:00.131Z,97370.41
2022-10-24T10:30:18.576Z,97369.25
2022-10-24T10:31:24.865Z,97366.50
2022-10-24T10:32:38.076Z,97365.72
2022-10-24T10:33:52.491Z,97367.28
2022-10-24T10:35:07.929Z,97357.88
2022-10-24T10:36:28.054Z,97362.59
2022-10-24T10:37:31.908Z,97359.84
2022-10-24T10:38:52.275Z,97357.53
2022-10-24T10:40:28.779Z,97352.03
2022-10-24T10:41:37.390Z,97356.72
2022-10-24T10:42:41.693Z,97350.06
2022-10-24T10:43:57.598Z,97346.16
2022-10-24T10:45:16.960Z,97340.72
2022-10-24T10:47:10.844Z,97333.28
2022-10-24T10:48:21.663Z,97342.63
2022-10-24T10:49:26.002Z,97333.66
2022-10-24T10:50:42.443Z,97334.00
2022-10-24T10:52:06.652Z,97332.78
2022-10-24T10:53:30.159Z,97330.41
2022-10-24T10:54:41.636Z,97330.03
2022-10-24T10:55:59.117Z,97328.06
2022-10-24T10:57:07.750Z,97322.63
2022-10-24T10:58:18.157Z,97323.38
2022-10-24T10:59:57.455Z,97321.00
2022-10-24T11:01:26.401Z,97323.31
2022-10-24T11:02:50.610Z,97320.56
2022-10-24T11:04:05.248Z,97321.69
2022-10-24T11:05:24.511Z,97316.97
2022-10-24T11:06:49.291Z,97315.44
2022-10-24T11:08:17.178Z,97317.72
2022-10-24T11:09:29.627Z,97308.69
2022-10-24T11:10:42.064Z,97305.97
2022-10-24T11:11:52.096Z,97307.50
2022-10-24T11:12:55.872Z,97302.81
2022-10-24T11:14:11.292Z,97303.56
2022-10-24T11:15:29.727Z,97300.38
2022-10-24T11:16:32.393Z,97298.78
2022-10-24T11:17:50.962Z,97294.09
2022-10-24T11:18:57.087Z,97296.44
2022-10-24T11:20:18.211Z,97286.31
2022-10-24T11:21:24.077Z,97287.44
2022-10-24T11:22:31.164Z,97287.41
2022-10-24T11:23:51.629Z,97290.09
2022-10-24T11:25:02.597Z,97288.97
2022-10-24T11:26:09.508Z,97287.75
2022-10-24T11:28:55.750Z,97277.91
2022-10-24T11:30:06.787Z,97279.88
2022-10-24T11:31:17.273Z,97277.53
2022-10-24T11:32:54.929Z,97270.56
2022-10-24T11:34:16.256Z,97275.34
2022-10-24T11:35:31.121Z,97274.59
2022-10-24T11:36:53.407Z,97275.41
2022-10-24T11:38:05.418Z,97269.16
2022-10-24T11:39:20.203Z,97266.81
2022-10-24T11:40:25.008Z,97263.59
2022-10-24T11:41:58.430Z,97263.13
2022-10-24T11:43:33.259Z,97266.16
2022-10-24T11:44:50.554Z,97257.91
2022-10-24T11:46:02.553Z,97254.44
2022-10-24T11:47:19.495Z,97246.63
2022-10-24T11:48:53.294Z,97254.81
2022-10-24T11:49:55.074Z,97246.59
2022-10-24T11:51:01.070Z,97236.00
2022-10-24T11:52:19.039Z,97237.56
2022-10-24T11:53:47.301Z,97233.59
2022-10-24T11:54:59.294Z,97231.66
2022-10-24T11:56:37.812Z,97232.44
2022-10-24T11:57:43.566Z,97227.72
2022-10-24T11:59:26.699Z,97232.00
2022-10-24T12:00:37.870Z,97224.41
2022-10-24T12:01:57.347Z,97226.34
2022-10-24T12:03:26.229Z,97220.50
2022-10-24T12:05:09.367Z,97223.28
2022-10-24T12:06:29.827Z,97212.63
2022-10-24T12:07:52.922Z,97220.84
2022-10-24T12:09:09.312Z,97209.88
2022-10-24T12:10:14.009Z,97208.19
2022-10-24T12:11:41.989Z,97206.56
2022-10-24T12:12:49.284Z,97206.47
2022-10-24T12:14:28.608Z,97201.72
2022-10-24T12:15:56.962Z,97200.91
2022-10-24T12:17:18.887Z,97194.91
2022-10-24T12:18:30.412Z,97198.03
2022-10-24T12:19:32.508Z,97196.84
2022-10-24T12:20:35.332Z,97190.47
2022-10-24T12:21:50.146Z,97180.28
2022-10-24T12:22:53.938Z,97183.34
2022-10-24T12:23:59.050Z,97186.38
2022-10-24T12:25:10.931Z,97189.38
2022-10-24T12:26:24.232Z,97185.00
2022-10-24T12:27:39.690Z,97183.78
2022-10-24T12:28:43.490Z,97178.28
2022-10-24T12:29:45.070Z,97179.03
2022-10-24T12:31:22.278Z,97181.78
2022-10-24T12:32:42.383Z,97172.72
2022-10-24T12:34:04.959Z,97175.81
2022-10-24T12:35:49.441Z,97168.06
2022-10-24T12:37:18.680Z,97167.94
2022-10-24T12:38:29.488Z,97168.66
2022-10-24T12:39:37.490Z,97165.56
2022-10-24T12:40:45.383Z,97177.25
2022-10-24T12:41:47.194Z,97166.28
2022-10-24T12:42:51.999Z,97163.91
2022-10-24T12:44:37.103Z,97163.91
2022-10-24T12:45:38.918Z,97157.69
2022-10-24T12:46:40.404Z,97162.44
2022-10-24T12:48:02.770Z,97154.22
2022-10-24T12:49:10.447Z,97151.41
2022-10-24T12:50:23.726Z,97156.88
2022-10-24T12:51:38.123Z,97155.31
2022-10-24T12:52:45.888Z,97159.13
2022-10-24T12:54:06.026Z,97161.41
2022-10-24T12:55:39.475Z,97153.97
2022-10-24T12:56:51.242Z,97161.81
2022-10-24T12:57:53.153Z,97157.94
2022-10-24T12:59:16.103Z,97149.28
2022-10-24T13:00:30.186Z,97154.34
2022-10-24T13:01:36.626Z,97154.72
2022-10-24T13:02:47.785Z,97155.91
2022-10-24T13:03:53.485Z,97150.75
2022-10-24T13:05:33.631Z,97151.06
2022-10-24T13:06:50.257Z,97149.00
2022-10-24T13:08:13.491Z,97147.09
2022-10-24T13:09:30.861Z,97149.00
2022-10-24T13:11:03.147Z,97142.28
2022-10-24T13:12:28.526Z,97146.59
2022-10-24T13:13:39.406Z,97143.16